createdAt,value
2022-09-22T00:02:04.541Z,99844.27
2022-09-22T00:05:10.834Z,99840.58
2022-09-22T00:08:10.518Z,99841.16
2022-09-22T00:11:23.511Z,99843.48
2022-09-22T00:14:39.211Z,99844.78
2022-09-22T00:17:44.315Z,99849.56
2022-09-22T00:20:53.120Z,99850.09
2022-09-22T00:23:59.059Z,99858.66
2022-09-22T00:27:05.340Z,99855.13
2022-09-22T00:30:10.366Z,99851.86
2022-09-22T00:33:16.779Z,99855.41
2022-09-22T00:36:23.142Z,99852.91
2022-09-22T00:39:22.887Z,99855.03
2022-09-22T00:42:16.517Z,99860.94
2022-09-22T00:45:23.761Z,99865.66
2022-09-22T00:48:28.814Z,99863.60
2022-09-22T00:51:37.514Z,99867.45
2022-09-22T00:54:43.480Z,99865.60
2022-09-22T00:57:50.731Z,99865.67
2022-09-22T01:00:56.204Z,99861.48
2022-09-22T01:04:01.374Z,99866.00
2022-09-22T01:07:06.784Z,99866.36
2022-09-22T01:10:12.397Z,99865.88
2022-09-22T01:13:49.120Z,99872.11
2022-09-22T01:17:18.148Z,99873.25
2022-09-22T01:20:43.213Z,99873.67
2022-09-22T01:24:18.141Z,99871.02
2022-09-22T01:27:47.995Z,99875.06
2022-09-22T01:31:07.070Z,99876.92
2022-09-22T01:34:25.687Z,99873.64
2022-09-22T01:37:31.649Z,99879.16
2022-09-22T01:41:03.055Z,99880.30
2022-09-22T01:44:15.353Z,99879.63
2022-09-22T01:47:31.509Z,99877.30
2022-09-22T01:50:50.644Z,99876.38
2022-09-22T01:54:00.749Z,99875.45
2022-09-22T01:57:09.807Z,99879.33
2022-09-22T02:00:18.563Z,99887.71
2022-09-22T02:03:41.472Z,99883.72
2022-09-22T02:06:54.186Z,99884.41
2022-09-22T02:10:02.242Z,99882.23
2022-09-22T02:13:07.166Z,99882.89
2022-09-22T02:16:12.389Z,99880.85
2022-09-22T02:19:39.748Z,99884.93
2022-09-22T02:22:45.265Z,99878.44
2022-09-22T02:25:52.073Z,99870.25
2022-09-22T02:28:51.943Z,99875.50
2022-09-22T02:31:53.058Z,99880.10
2022-09-22T02:35:00.067Z,99882.50
2022-09-22T02:38:09.680Z,99876.52
2022-09-22T02:41:33.158Z,99880.30
2022-09-22T02:44:58.104Z,99880.83
2022-09-22T02:48:15.943Z,99877.39
2022-09-22T02:51:20.737Z,99881.66
2022-09-22T02:54:25.779Z,99879.09
2022-09-22T02:57:31.723Z,99871.75
2022-09-22T03:00:39.531Z,99869.33
2022-09-22T03:03:45.435Z,99859.11
2022-09-22T03:06:50.706Z,99858.77
2022-09-22T03:09:56.276Z,99859.55
2022-09-22T03:13:19.950Z,99864.83
2022-09-22T03:16:13.296Z,99870.75
2022-09-22T03:19:19.003Z,99870.42
2022-09-22T03:22:25.282Z,99865.81
2022-09-22T03:25:31.234Z,99872.41
2022-09-22T03:28:37.684Z,99868.99
2022-09-22T03:31:43.337Z,99864.05
2022-09-22T03:34:49.801Z,99871.19
2022-09-22T03:37:54.667Z,99876.11
2022-09-22T03:41:08.660Z,99876.57
2022-09-22T03:44:14.272Z,99871.63
2022-09-22T03:47:20.470Z,99876.19
2022-09-22T03:50:27.130Z,99882.17
2022-09-22T03:53:32.483Z,99883.53
2022-09-22T03:56:37.230Z,99884.92
2022-09-22T03:59:43.476Z,99873.05
2022-09-22T04:02:48.927Z,99874.23
2022-09-22T04:05:55.202Z,99879.65
2022-09-22T04:09:01.934Z,99889.30
2022-09-22T04:12:07.481Z,99889.05
2022-09-22T04:15:12.892Z,99878.72
2022-09-22T04:18:19.718Z,99885.28
2022-09-22T04:21:25.583Z,99883.48
2022-09-22T04:24:31.906Z,99886.05
2022-09-22T04:27:36.763Z,99887.25
2022-09-22T04:30:47.475Z,99893.65
2022-09-22T04:33:55.962Z,99893.98
2022-09-22T04:37:02.392Z,99888.34
2022-09-22T04:40:08.544Z,99887.94
2022-09-22T04:43:15.117Z,99887.75
2022-09-22T04:46:14.147Z,99886.77
2022-09-22T04:49:19.356Z,99882.47
2022-09-22T04:52:24.926Z,99885.91
2022-09-22T04:55:31.456Z,99879.78
2022-09-22T04:58:38.113Z,99876.84
2022-09-22T05:01:43.539Z,99886.30
2022-09-22T05:04:48.964Z,99882.30
2022-09-22T05:08:01.234Z,99888.80
2022-09-22T05:11:07.980Z,99889.95
2022-09-22T05:14:14.824Z,99900.55
2022-09-22T05:17:20.536Z,99901.47
2022-09-22T05:20:27.420Z,99912.05
2022-09-22T05:23:36.995Z,99906.28
2022-09-22T05:26:43.753Z,99907.06
2022-09-22T05:29:48.485Z,99913.44
2022-09-22T05:33:00.056Z,99915.58
2022-09-22T05:36:07.565Z,99920.68
2022-09-22T05:39:14.285Z,99916.13
2022-09-22T05:42:20.888Z,99921.08
2022-09-22T05:45:26.646Z,99920.84
2022-09-22T05:48:33.212Z,99921.23
2022-09-22T05:51:39.455Z,99921.12
2022-09-22T05:54:40.819Z,99920.21
2022-09-22T05:57:41.540Z,99919.94
2022-09-22T06:00:40.740Z,99924.16
2022-09-22T06:03:27.013Z,99916.31
2022-09-22T06:06:22.172Z,99917.80
2022-09-22T06:09:15.747Z,99916.85
2022-09-22T06:12:22.150Z,99927.10
2022-09-22T06:15:27.730Z,99924.58
2022-09-22T06:18:33.337Z,99927.98
2022-09-22T06:21:42.254Z,99919.38
2022-09-22T06:24:48.418Z,99914.30
2022-09-22T06:27:54.024Z,99905.98
2022-09-22T06:31:00.319Z,99913.78
2022-09-22T06:36:39.596Z,99901.02
2022-09-22T06:39:45.758Z,99893.27
2022-09-22T06:42:52.188Z,99893.82
2022-09-22T06:46:02.458Z,99897.58
2022-09-22T06:49:12.556Z,99898.96
2022-09-22T06:52:23.461Z,99900.09
2022-09-22T06:55:29.574Z,99899.25
2022-09-22T06:58:58.607Z,99895.03
2022-09-22T07:01:43.096Z,99903.70
2022-09-22T07:04:50.700Z,99899.32
2022-09-22T07:07:59.416Z,99910.03
2022-09-22T07:11:11.282Z,99909.28
2022-09-22T07:14:19.779Z,99906.38
2022-09-22T07:17:27.487Z,99903.20
2022-09-22T07:20:35.153Z,99906.42
2022-09-22T07:23:43.396Z,99904.50
2022-09-22T07:26:53.564Z,99910.80
2022-09-22T07:30:01.592Z,99912.05
2022-09-22T07:33:08.182Z,99909.95
2022-09-22T07:36:21.226Z,99900.22
2022-09-22T07:39:26.694Z,99904.78
2022-09-22T07:42:32.716Z,99898.17
2022-09-22T07:45:39.088Z,99897.28
2022-09-22T07:48:55.429Z,99894.19
2022-09-22T07:52:18.536Z,99885.86
2022-09-22T07:55:25.855Z,99886.30
2022-09-22T07:58:33.128Z,99882.93
2022-09-22T08:01:41.852Z,99878.23
2022-09-22T08:04:49.507Z,99869.66
2022-09-22T08:07:55.675Z,99873.47
2022-09-22T08:11:02.557Z,99860.74
2022-09-22T08:14:13.348Z,99862.35
2022-09-22T08:17:19.990Z,99848.42
2022-09-22T08:20:27.780Z,99853.78
2022-09-22T08:23:33.761Z,99851.30
2022-09-22T08:26:39.302Z,99845.09
2022-09-22T08:29:45.176Z,99839.06
2022-09-22T08:32:52.521Z,99836.69
2022-09-22T08:36:11.546Z,99837.38
2022-09-22T08:39:16.484Z,99842.25
2022-09-22T08:42:35.272Z,99842.39
2022-09-22T08:45:46.045Z,99853.95
2022-09-22T08:49:08.878Z,99846.80
2022-09-22T08:52:18.740Z,99838.17
2022-09-22T08:55:41.152Z,99825.40
2022-09-22T08:59:05.650Z,99830.98
2022-09-22T09:02:37.171Z,99825.83
2022-09-22T09:06:17.830Z,99826.61
2022-09-22T09:09:23.671Z,99826.46
2022-09-22T09:12:49.785Z,99841.04
2022-09-22T09:15:59.903Z,99831.33
2022-09-22T09:19:11.123Z,99835.52
2022-09-22T09:22:17.211Z,99840.72
2022-09-22T09:25:36.686Z,99838.96
2022-09-22T09:29:04.002Z,99847.70
2022-09-22T09:32:09.550Z,99856.14
2022-09-22T09:35:16.638Z,99849.58
2022-09-22T09:38:24.665Z,99857.91
2022-09-22T09:41:46.592Z,99855.63
2022-09-22T09:44:56.224Z,99851.07
2022-09-22T09:48:26.543Z,99853.80
2022-09-22T09:51:31.637Z,99854.48
2022-09-22T09:54:37.574Z,99865.26
2022-09-22T09:57:43.204Z,99863.58
2022-09-22T10:00:49.975Z,99861.72
2022-09-22T10:04:02.159Z,99852.91
2022-09-22T10:07:08.439Z,99852.27
2022-09-22T10:10:37.727Z,99838.34
2022-09-22T10:13:47.483Z,99835.72
2022-09-22T10:16:54.748Z,99834.98
2022-09-22T10:20:01.710Z,99835.31
2022-09-22T10:23:09.829Z,99836.48
2022-09-22T10:26:44.700Z,99831.19
2022-09-22T10:29:49.616Z,99825.25
2022-09-22T10:32:54.510Z,99826.52
2022-09-22T10:36:19.235Z,99824.08
2022-09-22T10:39:28.268Z,99828.20
2022-09-22T10:42:54.752Z,99821.08
2022-09-22T10:46:19.265Z,99817.56
2022-09-22T10:50:07.657Z,99808.78
2022-09-22T10:53:22.027Z,99814.73
2022-09-22T10:56:54.689Z,99800.77
2022-09-22T11:00:33.055Z,99796.42
2022-09-22T11:04:15.362Z,99794.50
2022-09-22T11:08:18.845Z,99804.67
2022-09-22T11:11:58.383Z,99804.19
2022-09-22T11:15:22.434Z,99799.18
2022-09-22T11:18:59.995Z,99799.92
2022-09-22T11:22:32.917Z,99802.00
2022-09-22T11:26:24.126Z,99799.66
2022-09-22T11:30:10.984Z,99794.66
2022-09-22T11:33:46.659Z,99790.70
2022-09-22T11:37:33.181Z,99796.92
2022-09-22T11:41:31.610Z,99801.09
2022-09-22T11:44:50.936Z,99794.66
2022-09-22T11:48:07.469Z,99797.66
2022-09-22T11:51:56.552Z,99802.45
2022-09-22T11:55:35.124Z,99802.70
2022-09-22T11:58:42.631Z,99812.59
2022-09-22T12:01:51.920Z,99797.39
2022-09-22T12:05:11.343Z,99792.95
2022-09-22T12:08:29.967Z,99802.80
2022-09-22T12:11:37.112Z,99805.64
2022-09-22T12:14:44.878Z,99799.20
2022-09-22T12:18:03.604Z,99804.10
2022-09-22T12:21:17.005Z,99814.88
2022-09-22T12:24:26.147Z,99811.91
2022-09-22T12:27:42.168Z,99801.98
2022-09-22T12:30:48.779Z,99800.70
2022-09-22T12:34:01.168Z,99805.70
2022-09-22T12:37:11.656Z,99804.94
2022-09-22T12:40:35.647Z,99798.89
2022-09-22T12:43:41.954Z,99809.53
2022-09-22T12:46:48.498Z,99804.67
2022-09-22T12:50:13.168Z,99802.27
2022-09-22T12:53:28.771Z,99806.12
2022-09-22T12:57:22.978Z,99812.99
2022-09-22T13:00:36.166Z,99813.75
2022-09-22T13:03:45.756Z,99813.31
2022-09-22T13:06:59.561Z,99812.73
2022-09-22T13:10:05.263Z,99820.56
2022-09-22T13:13:22.276Z,99818.67
2022-09-22T13:16:36.157Z,99816.53
2022-09-22T13:19:28.980Z,99816.09
2022-09-22T13:22:34.936Z,99817.93
2022-09-22T13:25:42.604Z,99823.02
2022-09-22T13:28:47.606Z,99825.24
2022-09-22T13:32:00.108Z,99823.85
2022-09-22T13:35:06.573Z,99828.22
2022-09-22T13:38:14.209Z,99826.71
2022-09-22T13:41:25.465Z,99819.89
2022-09-22T13:44:35.279Z,99814.60
2022-09-22T13:47:41.821Z,99808.83
2022-09-22T13:50:47.329Z,99808.68
2022-09-22T13:53:52.981Z,99808.13
2022-09-22T13:57:00.450Z,99809.34
2022-09-22T14:00:07.102Z,99811.14
2022-09-22T14:03:13.549Z,99818.10
2022-09-22T14:06:21.882Z,99824.44
2022-09-22T14:09:27.120Z,99822.94
2022-09-22T14:12:32.830Z,99814.23
2022-09-22T14:15:57.518Z,99817.20
2022-09-22T14:19:07.142Z,99817.03
2022-09-22T14:22:12.640Z,99814.08
2022-09-22T14:25:20.417Z,99822.77
2022-09-22T14:28:29.695Z,99815.03
2022-09-22T14:31:41.380Z,99818.35
2022-09-22T14:34:47.895Z,99825.41
2022-09-22T14:37:52.853Z,99823.41
2022-09-22T14:40:40.403Z,99836.64
2022-09-22T14:43:49.027Z,99842.25
2022-09-22T14:46:56.433Z,99832.28
2022-09-22T14:50:03.123Z,99833.61
2022-09-22T14:53:30.057Z,99828.93
2022-09-22T14:56:43.890Z,99815.69
2022-09-22T15:00:08.575Z,99823.43
2022-09-22T15:03:13.488Z,99821.61
2022-09-22T15:06:24.882Z,99830.14
2022-09-22T15:09:42.480Z,99839.38
2022-09-22T15:12:58.042Z,99844.07
2022-09-22T15:16:03.885Z,99830.80
2022-09-22T15:19:09.034Z,99835.57
2022-09-22T15:22:15.282Z,99831.77
2022-09-22T15:25:22.797Z,99829.14
2022-09-22T15:28:33.335Z,99831.32
2022-09-22T15:31:39.179Z,99833.84
2022-09-22T15:34:46.372Z,99821.31
2022-09-22T15:37:52.750Z,99825.83
2022-09-22T15:41:00.095Z,99822.59
2022-09-22T15:44:06.548Z,99827.17
2022-09-22T15:47:12.830Z,99829.75
2022-09-22T15:50:23.539Z,99814.81
2022-09-22T15:53:30.385Z,99816.25
2022-09-22T15:56:36.212Z,99809.70
2022-09-22T15:59:45.008Z,99813.15
2022-09-22T16:02:50.441Z,99808.23
2022-09-22T16:05:58.016Z,99816.70
2022-09-22T16:09:09.365Z,99810.97
2022-09-22T16:12:19.538Z,99821.36
2022-09-22T16:15:27.281Z,99824.08
2022-09-22T16:18:33.479Z,99829.11
2022-09-22T16:21:44.814Z,99826.70
2022-09-22T16:24:50.936Z,99823.78
2022-09-22T16:27:57.339Z,99829.09
2022-09-22T16:31:03.299Z,99823.97
2022-09-22T16:34:12.876Z,99820.91
2022-09-22T16:37:18.264Z,99820.28
2022-09-22T16:40:27.225Z,99817.52
2022-09-22T16:43:32.821Z,99822.05
2022-09-22T16:46:41.677Z,99824.50
2022-09-22T16:49:47.880Z,99822.73
2022-09-22T16:52:54.454Z,99830.60
2022-09-22T16:56:04.169Z,99835.97
2022-09-22T16:59:10.236Z,99836.88
2022-09-22T17:02:15.701Z,99838.12
2022-09-22T17:05:22.461Z,99844.34
2022-09-22T17:08:30.822Z,99842.97
2022-09-22T17:11:37.660Z,99849.83
2022-09-22T17:14:44.208Z,99850.28
2022-09-22T17:17:50.949Z,99851.43
2022-09-22T17:20:51.532Z,99851.61
2022-09-22T17:23:58.300Z,99845.84
2022-09-22T17:27:08.984Z,99855.41
2022-09-22T17:30:14.572Z,99858.88
2022-09-22T17:33:19.343Z,99860.66
2022-09-22T17:36:26.194Z,99857.50
2022-09-22T17:39:25.116Z,99863.03
2022-09-22T17:42:30.982Z,99861.59
2022-09-22T17:45:36.166Z,99862.67
2022-09-22T17:48:59.479Z,99861.05
2022-09-22T17:52:24.058Z,99858.52
2022-09-22T17:55:34.255Z,99858.98
2022-09-22T17:58:40.103Z,99858.83
2022-09-22T18:01:45.758Z,99856.52
2022-09-22T18:04:51.724Z,99850.05
2022-09-22T18:07:58.411Z,99846.38
2022-09-22T18:11:04.767Z,99844.70
2022-09-22T18:14:12.772Z,99844.08
2022-09-22T18:17:19.531Z,99838.99
2022-09-22T18:20:33.446Z,99842.09
2022-09-22T18:23:39.678Z,99846.69
2022-09-22T18:26:46.810Z,99835.39
2022-09-22T18:29:56.287Z,99842.25
2022-09-22T18:33:02.742Z,99841.23
2022-09-22T18:36:08.565Z,99840.55
2022-09-22T18:39:15.677Z,99839.88
2022-09-22T18:42:24.484Z,99837.26
2022-09-22T18:45:34.646Z,99835.73
2022-09-22T18:48:40.019Z,99838.85
2022-09-22T18:51:49.167Z,99838.30
2022-09-22T18:54:55.347Z,99832.48
2022-09-22T18:58:00.910Z,99824.97
2022-09-22T19:01:06.935Z,99828.97
2022-09-22T19:04:12.861Z,99830.56
2022-09-22T19:07:40.592Z,99829.72
2022-09-22T19:10:42.593Z,99835.88
2022-09-22T19:13:41.571Z,99841.31
2022-09-22T19:16:48.806Z,99834.25
2022-09-22T19:19:56.157Z,99834.64
2022-09-22T19:23:01.111Z,99844.53
2022-09-22T19:26:06.987Z,99846.78
2022-09-22T19:29:12.278Z,99848.77
2022-09-22T19:32:17.477Z,99850.30
2022-09-22T19:35:23.884Z,99852.45
2022-09-22T19:38:29.152Z,99856.66
2022-09-22T19:41:34.339Z,99849.75
2022-09-22T19:44:33.770Z,99847.77
2022-09-22T19:47:39.698Z,99842.30
2022-09-22T19:50:46.660Z,99853.00
2022-09-22T19:53:53.019Z,99850.45
2022-09-22T19:57:00.832Z,99845.40
2022-09-22T20:00:06.575Z,99839.72
2022-09-22T20:03:12.655Z,99847.37
2022-09-22T20:06:17.970Z,99841.31
2022-09-22T20:09:18.938Z,99843.07
2022-09-22T20:12:18.359Z,99840.16
2022-09-22T20:15:25.591Z,99839.61
2022-09-22T20:18:31.797Z,99833.84
2022-09-22T20:21:37.142Z,99835.85
2022-09-22T20:24:43.864Z,99834.63
2022-09-22T20:27:51.028Z,99841.67
2022-09-22T20:30:56.856Z,99842.59
2022-09-22T20:34:03.121Z,99841.22
2022-09-22T20:37:08.904Z,99834.63
2022-09-22T20:40:14.437Z,99828.85
2022-09-22T20:43:23.609Z,99835.07
2022-09-22T20:46:31.642Z,99830.19
2022-09-22T20:49:39.607Z,99829.94
2022-09-22T20:52:45.087Z,99835.01
2022-09-22T20:55:50.388Z,99823.97
2022-09-22T20:58:58.579Z,99822.48
2022-09-22T21:02:06.657Z,99826.83
2022-09-22T21:05:05.712Z,99817.51
2022-09-22T21:08:06.596Z,99815.40
2022-09-22T21:11:11.599Z,99814.25
2022-09-22T21:14:17.808Z,99814.64
2022-09-22T21:17:24.401Z,99807.05
2022-09-22T21:20:30.049Z,99807.34
2022-09-22T21:23:36.925Z,99800.04
2022-09-22T21:26:42.184Z,99800.34
2022-09-22T21:29:47.877Z,99794.61
2022-09-22T21:32:53.678Z,99795.50
2022-09-22T21:36:01.748Z,99792.14
2022-09-22T21:39:12.240Z,99793.22
2022-09-22T21:42:17.531Z,99799.44
2022-09-22T21:45:25.063Z,99797.88
2022-09-22T21:48:31.297Z,99795.32
2022-09-22T21:51:37.151Z,99796.02
2022-09-22T21:54:42.990Z,99797.38
2022-09-22T21:57:47.903Z,99792.03
2022-09-22T22:00:54.031Z,99793.82
2022-09-22T22:03:59.835Z,99794.73
2022-09-22T22:07:05.133Z,99796.45
2022-09-22T22:10:10.932Z,99787.33
2022-09-22T22:13:18.441Z,99787.97
2022-09-22T22:16:26.648Z,99789.35
2022-09-22T22:19:34.827Z,99790.39
2022-09-22T22:22:40.279Z,99783.22
2022-09-22T22:25:46.075Z,99778.14
2022-09-22T22:28:52.144Z,99778.68
2022-09-22T22:31:58.597Z,99772.28
2022-09-22T22:35:04.516Z,99767.52
2022-09-22T22:38:11.121Z,99773.47
2022-09-22T22:41:19.373Z,99766.41
2022-09-22T22:44:26.031Z,99760.28
2022-09-22T22:47:32.831Z,99759.70
2022-09-22T22:50:38.697Z,99761.89
2022-09-22T22:53:45.030Z,99761.08
2022-09-22T22:56:51.777Z,99756.41
2022-09-22T22:59:57.410Z,99754.95
2022-09-22T23:03:01.947Z,99755.73
2022-09-22T23:06:15.193Z,99756.16
2022-09-22T23:09:24.605Z,99756.87
2022-09-22T23:12:31.046Z,99752.64
2022-09-22T23:15:29.563Z,99751.85
2022-09-22T23:18:35.569Z,99749.66
2022-09-22T23:21:41.840Z,99755.21
2022-09-22T23:24:48.565Z,99752.09
2022-09-22T23:27:55.628Z,99748.92
2022-09-22T23:31:02.587Z,99738.98
2022-09-22T23:34:09.300Z,99741.63
2022-09-22T23:37:15.489Z,99731.86
2022-09-22T23:40:23.971Z,99732.29
2022-09-22T23:43:30.223Z,99725.67
2022-09-22T23:46:37.114Z,99723.77
2022-09-22T23:49:42.671Z,99723.36
2022-09-22T23:52:50.847Z,99719.13
2022-09-22T23:55:56.419Z,99719.13
2022-09-22T23:58:54.697Z,99714.80
